Time;durP1;ratioP1;P1;durP2;ratioP2;P2;SDS_P1;SDS_P2;PMS_P1;PMS_P2;Temp;Humidity;BMP_temperature;BMP_pressure;BME280_temperature;BME280_humidity;BME280_pressure;Samples;Min_cycle;Max_cycle;Signal;HPM_P1;HPM_P2
2021/10/18 00:01:00;;;;;;;50.15;23.77;;;7.10;99.90;;;;;;2722723;27;20222;-67
2021/10/18 00:02:18;;;;;;;59.00;24.80;;;7.10;99.90;;;;;;2722953;27;20199;-67
2021/10/18 00:03:37;;;;;;;44.45;22.10;;;7.10;99.90;;;;;;2717356;27;20883;-67
2021/10/18 00:04:55;;;;;;;41.70;22.00;;;7.10;99.90;;;;;;2722863;27;20654;-67
2021/10/18 00:06:13;;;;;;;36.85;20.85;;;7.10;99.90;;;;;;2723467;27;20650;-68
2021/10/18 00:07:31;;;;;;;40.07;19.90;;;7.10;99.90;;;;;;2718870;27;20235;-68
2021/10/18 00:08:50;;;;;;;38.42;19.92;;;7.00;99.90;;;;;;2721183;27;20240;-68
2021/10/18 00:10:07;;;;;;;38.85;20.25;;;7.10;99.90;;;;;;2717956;27;20260;-68
2021/10/18 00:11:26;;;;;;;33.40;19.60;;;7.00;99.90;;;;;;2715148;27;20258;-67
2021/10/18 00:12:44;;;;;;;38.60;21.90;;;7.00;99.90;;;;;;2722174;27;20207;-68
2021/10/18 00:14:02;;;;;;;34.95;20.35;;;7.00;99.90;;;;;;2722641;27;20282;-68
2021/10/18 00:15:21;;;;;;;37.85;19.60;;;7.00;99.90;;;;;;2723091;27;20651;-68
2021/10/18 00:16:39;;;;;;;32.47;18.88;;;7.00;99.90;;;;;;2720816;27;20648;-68
2021/10/18 00:17:59;;;;;;;34.30;19.08;;;7.00;99.90;;;;;;2719513;27;20203;-68
2021/10/18 00:19:18;;;;;;;35.83;20.33;;;7.00;99.90;;;;;;2719470;27;20943;-68
2021/10/18 00:20:35;;;;;;;43.92;21.63;;;7.00;99.90;;;;;;2718662;27;20273;-68
2021/10/18 00:21:53;;;;;;;40.30;21.10;;;6.90;99.90;;;;;;2720631;27;20233;-68
2021/10/18 00:23:12;;;;;;;47.15;22.17;;;6.90;99.90;;;;;;2714448;27;20256;-68
2021/10/18 00:24:29;;;;;;;41.50;21.75;;;7.00;99.90;;;;;;2717669;27;20203;-68
2021/10/18 00:25:48;;;;;;;44.03;21.57;;;7.00;99.90;;;;;;2720825;27;20223;-68
2021/10/18 00:27:06;;;;;;;41.38;22.08;;;7.00;99.90;;;;;;2723168;27;20256;-68
2021/10/18 00:28:25;;;;;;;46.60;22.25;;;7.00;99.90;;;;;;2721065;27;20236;-67
2021/10/18 00:29:43;;;;;;;40.22;21.20;;;7.00;99.90;;;;;;2721026;27;20255;-68
2021/10/18 00:31:02;;;;;;;42.75;21.85;;;7.00;99.90;;;;;;2721358;27;20640;-68
2021/10/18 00:32:19;;;;;;;42.22;21.02;;;7.10;99.90;;;;;;2718373;27;20610;-68
2021/10/18 00:33:38;;;;;;;38.57;21.33;;;7.00;99.90;;;;;;2721525;27;20203;-68
2021/10/18 00:34:56;;;;;;;37.80;21.30;;;7.00;99.90;;;;;;2721910;27;20956;-67
2021/10/18 00:36:15;;;;;;;47.70;21.17;;;7.10;99.90;;;;;;2714913;27;20269;-68
2021/10/18 00:37:32;;;;;;;44.28;20.20;;;7.10;99.90;;;;;;2721106;27;20636;-68
2021/10/18 00:38:51;;;;;;;37.77;20.77;;;7.10;99.90;;;;;;2720282;27;20293;-68
2021/10/18 00:40:08;;;;;;;40.80;21.65;;;7.10;99.90;;;;;;2722352;27;20198;-68
2021/10/18 00:41:27;;;;;;;40.40;21.80;;;7.00;99.90;;;;;;2723029;27;20678;-68
2021/10/18 00:42:45;;;;;;;42.95;22.10;;;7.00;99.90;;;;;;2719927;27;20685;-68
2021/10/18 00:44:03;;;;;;;43.03;21.50;;;7.00;99.90;;;;;;2720997;27;20299;-68
2021/10/18 00:45:21;;;;;;;41.97;22.07;;;7.00;99.90;;;;;;2722290;27;20282;-68
2021/10/18 00:46:39;;;;;;;42.25;22.52;;;6.90;99.90;;;;;;2722127;27;20226;-68
2021/10/18 00:47:58;;;;;;;34.78;20.63;;;7.00;99.90;;;;;;2718557;27;20195;-68
2021/10/18 00:49:16;;;;;;;38.15;21.60;;;7.00;99.90;;;;;;2718774;27;20580;-67
2021/10/18 00:50:34;;;;;;;41.73;20.73;;;7.00;99.90;;;;;;2721028;27;20210;-69
2021/10/18 00:51:51;;;;;;;34.75;21.05;;;7.00;99.90;;;;;;2714762;27;20199;-68
2021/10/18 00:53:10;;;;;;;35.90;21.57;;;7.00;99.90;;;;;;2721160;27;20230;-68
2021/10/18 00:54:27;;;;;;;38.95;21.75;;;7.10;99.90;;;;;;2720697;27;20667;-68
2021/10/18 00:55:46;;;;;;;38.03;21.90;;;7.10;99.90;;;;;;2722540;27;20226;-67
2021/10/18 00:57:03;;;;;;;40.20;23.67;;;7.10;99.90;;;;;;2719421;27;20245;-68
2021/10/18 00:58:22;;;;;;;39.63;23.00;;;7.10;99.90;;;;;;2720706;27;20688;-68
2021/10/18 00:59:40;;;;;;;36.65;23.63;;;7.20;99.90;;;;;;2721938;27;20190;-68
2021/10/18 01:00:59;;;;;;;40.83;23.27;;;7.20;99.90;;;;;;2722437;27;20223;-67
2021/10/18 01:02:17;;;;;;;36.55;21.85;;;7.20;99.90;;;;;;2721119;27;20679;-68
2021/10/18 01:03:35;;;;;;;35.25;22.65;;;7.20;99.90;;;;;;2722688;27;20210;-68
2021/10/18 01:04:54;;;;;;;35.25;21.05;;;7.20;99.90;;;;;;2718994;27;20859;-68
2021/10/18 01:06:12;;;;;;;36.55;22.23;;;7.20;99.90;;;;;;2721737;27;20265;-68
2021/10/18 01:07:31;;;;;;;35.55;21.27;;;7.30;99.90;;;;;;2719909;27;20640;-68
2021/10/18 01:08:48;;;;;;;43.10;24.65;;;7.30;99.90;;;;;;2722034;27;20207;-68
2021/10/18 01:10:07;;;;;;;32.87;21.67;;;7.20;99.90;;;;;;2719722;27;20282;-68
2021/10/18 01:11:24;;;;;;;37.53;22.60;;;7.20;99.90;;;;;;2719454;27;20199;-67
2021/10/18 01:12:43;;;;;;;36.13;21.43;;;7.30;99.90;;;;;;2722534;27;20644;-68
2021/10/18 01:14:01;;;;;;;37.53;21.83;;;7.30;99.90;;;;;;2722392;27;20224;-68
2021/10/18 01:15:19;;;;;;;35.63;23.42;;;7.30;99.90;;;;;;2721236;27;20202;-68
2021/10/18 01:16:37;;;;;;;37.97;22.92;;;7.30;99.90;;;;;;2720262;27;20199;-67
2021/10/18 01:17:55;;;;;;;40.80;22.77;;;7.30;99.90;;;;;;2719422;27;20247;-68
2021/10/18 01:19:14;;;;;;;35.58;22.90;;;7.30;99.90;;;;;;2720391;27;20203;-68
2021/10/18 01:20:32;;;;;;;36.00;22.33;;;7.30;99.90;;;;;;2714783;27;20225;-67
2021/10/18 01:21:50;;;;;;;36.20;23.17;;;7.30;99.90;;;;;;2721036;27;20199;-68
2021/10/18 01:23:09;;;;;;;35.43;22.27;;;7.30;99.90;;;;;;2722237;27;20230;-68
2021/10/18 01:24:26;;;;;;;43.72;23.52;;;7.30;99.90;;;;;;2720721;27;20201;-67
2021/10/18 01:25:45;;;;;;;40.73;23.63;;;7.20;99.90;;;;;;2720807;27;20202;-68
2021/10/18 01:27:02;;;;;;;36.03;21.73;;;7.20;99.90;;;;;;2718113;27;20283;-68
2021/10/18 01:28:21;;;;;;;39.20;22.10;;;7.20;99.90;;;;;;2719323;27;20203;-68
2021/10/18 01:29:38;;;;;;;38.35;22.40;;;7.20;99.90;;;;;;2722263;27;20233;-68
2021/10/18 01:30:57;;;;;;;35.03;21.50;;;7.20;99.90;;;;;;2722532;27;21418;-68
2021/10/18 01:32:15;;;;;;;47.70;20.20;;;7.30;99.90;;;;;;2721140;27;20263;-69
2021/10/18 01:33:34;;;;;;;39.97;21.00;;;7.30;99.90;;;;;;2722171;27;20198;-67
2021/10/18 01:34:51;;;;;;;31.33;19.35;;;7.30;99.90;;;;;;2718704;27;20216;-67
2021/10/18 01:36:10;;;;;;;35.70;21.00;;;7.30;99.90;;;;;;2721998;27;20285;-68
2021/10/18 01:37:28;;;;;;;34.25;19.88;;;7.30;99.90;;;;;;2721679;27;20232;-68
2021/10/18 01:38:46;;;;;;;36.17;19.83;;;7.30;99.90;;;;;;2721375;27;20267;-68
2021/10/18 01:40:04;;;;;;;32.40;19.90;;;7.30;99.90;;;;;;2718719;27;20228;-68
2021/10/18 01:41:22;;;;;;;32.03;19.67;;;7.30;99.90;;;;;;2719374;27;20325;-67
2021/10/18 01:42:40;;;;;;;32.97;21.13;;;7.30;99.90;;;;;;2719684;27;20203;-68
2021/10/18 01:43:59;;;;;;;35.23;20.03;;;7.30;99.90;;;;;;2715057;27;20735;-67
2021/10/18 01:45:17;;;;;;;43.05;22.48;;;7.30;99.90;;;;;;2717255;27;20263;-67
2021/10/18 01:46:34;;;;;;;39.95;22.65;;;7.30;99.90;;;;;;2721035;27;20253;-68
2021/10/18 01:47:53;;;;;;;37.03;22.80;;;7.30;99.90;;;;;;2722010;27;20253;-68
2021/10/18 01:49:10;;;;;;;35.78;22.10;;;7.30;99.90;;;;;;2721814;27;20573;-68
2021/10/18 01:50:29;;;;;;;35.70;21.43;;;7.30;99.90;;;;;;2721750;27;20281;-68
2021/10/18 01:51:47;;;;;;;41.50;23.00;;;7.30;99.90;;;;;;2719694;27;20279;-68
2021/10/18 01:53:05;;;;;;;32.57;21.40;;;7.30;99.90;;;;;;2717028;27;20198;-68
2021/10/18 01:54:24;;;;;;;42.20;23.58;;;7.30;99.90;;;;;;2697251;22;20241;-68
2021/10/18 01:55:41;;;;;;;35.88;24.42;;;7.30;99.90;;;;;;2687622;28;20537;-68
2021/10/18 01:57:00;;;;;;;42.53;24.90;;;7.30;99.90;;;;;;2685778;28;20681;-68
2021/10/18 01:58:18;;;;;;;35.17;23.45;;;7.20;99.90;;;;;;2686213;28;20254;-68
2021/10/18 01:59:36;;;;;;;33.17;21.30;;;7.20;99.90;;;;;;2688477;28;20263;-68
2021/10/18 02:00:54;;;;;;;34.50;21.48;;;7.30;99.90;;;;;;2685935;28;20315;-67
2021/10/18 02:02:13;;;;;;;32.67;20.80;;;7.30;99.90;;;;;;2687862;28;20236;-68
2021/10/18 02:03:30;;;;;;;40.28;22.65;;;7.30;99.90;;;;;;2687207;28;20197;-67
2021/10/18 02:04:48;;;;;;;40.33;19.53;;;7.30;99.90;;;;;;2688298;28;20228;-67
2021/10/18 02:06:06;;;;;;;30.13;20.08;;;7.30;99.90;;;;;;2688729;28;20209;-67
2021/10/18 02:07:24;;;;;;;32.30;20.03;;;7.30;99.90;;;;;;2689765;28;20343;-68
2021/10/18 02:08:43;;;;;;;32.63;19.92;;;7.30;99.90;;;;;;2683126;28;20259;-69
2021/10/18 02:10:01;;;;;;;33.75;20.40;;;7.30;99.90;;;;;;2679333;28;20206;-68
2021/10/18 02:11:20;;;;;;;32.45;19.13;;;7.30;99.90;;;;;;2687666;28;20262;-68
2021/10/18 02:12:39;;;;;;;30.17;19.10;;;7.30;99.90;;;;;;2689249;28;20238;-68
2021/10/18 02:15:19;;;;;;;28.20;18.40;;;7.30;99.90;;;;;;2708142;28;20215;-67
2021/10/18 02:16:38;;;;;;;49.42;19.15;;;7.30;99.90;;;;;;2726297;22;20238;-68
2021/10/18 02:17:55;;;;;;;90.80;20.60;;;7.30;99.90;;;;;;2719101;27;20745;-68
2021/10/18 02:19:14;;;;;;;33.47;19.53;;;7.20;99.90;;;;;;2718098;27;20325;-68
2021/10/18 02:20:32;;;;;;;46.97;18.85;;;7.20;99.90;;;;;;2721284;27;20253;-68
2021/10/18 02:21:51;;;;;;;31.38;18.38;;;7.20;99.90;;;;;;2720283;28;20199;-67
2021/10/18 02:23:09;;;;;;;39.60;17.50;;;7.20;99.90;;;;;;2715332;27;20252;-68
2021/10/18 02:24:27;;;;;;;29.23;18.90;;;7.20;99.90;;;;;;2716638;27;20607;-68
2021/10/18 02:25:45;;;;;;;34.93;18.93;;;7.20;99.90;;;;;;2713839;27;20231;-68
2021/10/18 02:27:02;;;;;;;34.55;18.67;;;7.20;99.90;;;;;;2717771;27;20191;-68
2021/10/18 02:28:21;;;;;;;35.10;18.40;;;7.20;99.90;;;;;;2722374;27;20230;-68
2021/10/18 02:29:39;;;;;;;32.63;19.80;;;7.20;99.90;;;;;;2720481;28;20221;-68
2021/10/18 02:30:58;;;;;;;35.75;19.83;;;7.20;99.90;;;;;;2718314;28;20195;-68
2021/10/18 02:32:16;;;;;;;36.53;20.85;;;7.20;99.90;;;;;;2719619;28;20206;-67
2021/10/18 02:34:59;;;;;;;37.00;21.67;;;7.30;99.90;;;;;;2709607;23;20238;-67
2021/10/18 02:36:17;;;;;;;37.83;22.25;;;7.30;99.90;;;;;;2727488;22;20238;-68
2021/10/18 02:37:35;;;;;;;36.40;19.77;;;7.30;99.90;;;;;;2721485;28;20609;-68
2021/10/18 02:38:54;;;;;;;35.78;20.35;;;7.30;99.90;;;;;;2722058;28;20236;-67
2021/10/18 02:40:12;;;;;;;35.63;21.02;;;7.30;99.90;;;;;;2720071;28;20492;-68
2021/10/18 02:41:31;;;;;;;34.80;19.33;;;7.30;99.90;;;;;;2717146;27;20229;-68
2021/10/18 02:42:49;;;;;;;36.38;20.50;;;7.30;99.90;;;;;;2714349;28;20205;-67
2021/10/18 02:44:08;;;;;;;37.00;20.45;;;7.30;99.90;;;;;;2721248;28;20203;-67
2021/10/18 02:45:26;;;;;;;38.95;20.35;;;7.40;99.90;;;;;;2721719;28;20624;-68
2021/10/18 02:46:45;;;;;;;47.15;20.50;;;7.30;99.90;;;;;;2721403;28;20604;-68
2021/10/18 02:48:03;;;;;;;40.33;21.13;;;7.30;99.90;;;;;;2718511;28;20207;-68
2021/10/18 02:49:21;;;;;;;37.33;20.95;;;7.40;99.90;;;;;;2720259;27;20201;-68
2021/10/18 02:50:40;;;;;;;37.90;20.50;;;7.30;99.90;;;;;;2721647;28;20271;-68
2021/10/18 02:51:57;;;;;;;37.58;21.88;;;7.30;99.90;;;;;;2721023;27;20773;-68
2021/10/18 02:53:16;;;;;;;37.20;20.53;;;7.30;99.90;;;;;;2716956;28;20205;-68
2021/10/18 02:56:00;;;;;;;40.53;21.67;;;7.30;99.90;;;;;;2695299;23;20239;-68
2021/10/18 02:57:18;;;;;;;38.13;20.35;;;7.40;99.90;;;;;;2698296;28;20208;-67
2021/10/18 02:58:38;;;;;;;35.63;19.73;;;7.40;99.90;;;;;;2699410;28;20204;-68
2021/10/18 02:59:55;;;;;;;37.60;20.20;;;7.40;99.90;;;;;;2699914;28;20270;-68
2021/10/18 03:01:14;;;;;;;37.47;20.20;;;7.40;99.90;;;;;;2695975;28;20715;-68
2021/10/18 03:02:31;;;;;;;39.42;21.02;;;7.40;99.90;;;;;;2698508;28;20204;-68
2021/10/18 03:03:50;;;;;;;38.10;22.50;;;7.40;99.90;;;;;;2698395;28;20667;-67
2021/10/18 03:05:09;;;;;;;36.42;21.00;;;7.40;99.90;;;;;;2698116;28;20207;-68
2021/10/18 03:06:28;;;;;;;35.15;18.73;;;7.40;99.90;;;;;;2700058;28;20200;-67
2021/10/18 03:07:51;;;;;;;35.63;20.23;;;7.40;99.90;;;;;;2692958;28;20212;-67
2021/10/18 03:09:09;;;;;;;35.75;19.30;;;7.40;99.90;;;;;;2697389;28;20303;-68
2021/10/18 03:10:27;;;;;;;32.07;19.13;;;7.40;99.90;;;;;;2699875;28;20200;-68
2021/10/18 03:11:45;;;;;;;35.70;19.25;;;7.40;99.90;;;;;;2695787;28;20208;-68
2021/10/18 03:13:03;;;;;;;34.50;20.33;;;7.50;99.90;;;;;;2694132;28;20621;-67
2021/10/18 03:14:20;;;;;;;39.35;20.42;;;7.50;99.90;;;;;;2709621;22;22633;-66
2021/10/18 03:15:39;;;;;;;36.57;19.83;;;7.50;99.90;;;;;;2667097;22;20319;-68
2021/10/18 03:16:57;;;;;;;33.85;19.05;;;7.50;99.90;;;;;;2646351;28;20207;-68
2021/10/18 03:18:16;;;;;;;31.67;17.88;;;7.50;99.90;;;;;;2664784;28;20206;-68
2021/10/18 03:19:34;;;;;;;36.03;19.70;;;7.50;99.90;;;;;;2656370;28;20236;-68
2021/10/18 03:20:52;;;;;;;34.75;19.52;;;7.50;99.90;;;;;;2670273;28;20647;-68
2021/10/18 03:22:10;;;;;;;34.27;21.37;;;7.50;99.90;;;;;;2653461;28;20294;-67
2021/10/18 03:23:28;;;;;;;33.47;19.10;;;7.60;99.90;;;;;;2674791;28;20478;-67
2021/10/18 03:24:47;;;;;;;34.67;21.35;;;7.60;99.90;;;;;;2647556;28;20211;-68
2021/10/18 03:26:05;;;;;;;34.22;19.95;;;7.60;99.90;;;;;;2668055;28;20195;-68
2021/10/18 03:27:24;;;;;;;30.40;19.95;;;7.60;99.90;;;;;;2649449;28;20207;-68
2021/10/18 03:28:42;;;;;;;33.83;20.40;;;7.50;99.90;;;;;;2654331;28;20225;-68
2021/10/18 03:30:01;;;;;;;33.13;20.92;;;7.50;99.90;;;;;;2673330;28;20191;-68
2021/10/18 03:31:19;;;;;;;34.05;20.65;;;7.50;99.90;;;;;;2651776;28;20206;-67
2021/10/18 03:32:38;;;;;;;34.70;19.65;;;7.50;99.90;;;;;;2685982;28;20679;-68
2021/10/18 03:33:55;;;;;;;36.35;20.50;;;7.50;99.90;;;;;;2672244;28;20210;-68
2021/10/18 03:35:13;;;;;;;35.87;20.90;;;7.60;99.90;;;;;;2672911;28;20210;-68
2021/10/18 03:36:32;;;;;;;36.30;21.38;;;7.50;99.90;;;;;;2657437;28;20613;-68
2021/10/18 03:37:49;;;;;;;35.45;21.85;;;7.50;99.90;;;;;;2648930;28;20652;-68
2021/10/18 03:39:08;;;;;;;35.27;21.57;;;7.60;99.90;;;;;;2653438;28;20279;-68
2021/10/18 03:40:26;;;;;;;35.75;21.73;;;7.60;99.90;;;;;;2654248;28;20204;-68
2021/10/18 03:41:45;;;;;;;33.42;19.70;;;7.60;99.90;;;;;;2649086;28;20239;-68
2021/10/18 03:43:04;;;;;;;32.20;20.80;;;7.60;99.90;;;;;;2654614;28;20210;-68
2021/10/18 03:44:22;;;;;;;29.55;20.02;;;7.60;99.90;;;;;;2673308;28;20274;-68
2021/10/18 03:45:41;;;;;;;31.05;19.48;;;7.60;99.90;;;;;;2664237;28;20207;-68
2021/10/18 03:46:58;;;;;;;32.00;19.33;;;7.60;99.90;;;;;;2664198;28;20208;-68
2021/10/18 03:48:17;;;;;;;35.97;19.60;;;7.60;99.90;;;;;;2661262;28;20568;-68
2021/10/18 03:49:34;;;;;;;36.88;20.13;;;7.60;99.90;;;;;;2659116;28;20583;-67
2021/10/18 03:50:52;;;;;;;31.03;18.43;;;7.60;99.90;;;;;;2658400;28;20227;-67
2021/10/18 03:52:11;;;;;;;40.05;20.15;;;7.60;99.90;;;;;;2650251;28;20200;-67
2021/10/18 03:53:29;;;;;;;32.15;20.70;;;7.60;99.90;;;;;;2660588;28;20218;-68
2021/10/18 03:54:48;;;;;;;37.28;20.85;;;7.60;99.90;;;;;;2663199;28;20656;-68
2021/10/18 03:56:06;;;;;;;40.53;21.20;;;7.70;99.90;;;;;;2650687;28;20206;-68
2021/10/18 03:57:25;;;;;;;38.22;20.90;;;7.70;99.90;;;;;;2657009;28;20211;-68
2021/10/18 03:58:43;;;;;;;42.50;21.27;;;7.70;99.90;;;;;;2660126;28;20268;-68
2021/10/18 04:00:01;;;;;;;37.65;19.50;;;7.60;99.90;;;;;;2647539;28;20672;-68
2021/10/18 04:01:19;;;;;;;41.77;21.30;;;7.60;99.90;;;;;;2658290;28;20215;-68
2021/10/18 04:02:38;;;;;;;38.42;20.42;;;7.60;99.90;;;;;;2699776;28;20642;-68
2021/10/18 04:03:56;;;;;;;41.97;22.02;;;7.60;99.90;;;;;;2657116;28;20563;-67
2021/10/18 04:05:15;;;;;;;42.63;20.10;;;7.60;99.90;;;;;;2659997;28;20211;-68
2021/10/18 04:06:33;;;;;;;41.38;21.80;;;7.70;99.90;;;;;;2654149;28;20596;-68
2021/10/18 04:07:51;;;;;;;37.30;22.40;;;7.60;99.90;;;;;;2671399;28;20287;-68
2021/10/18 04:09:10;;;;;;;36.90;19.95;;;7.60;99.90;;;;;;2659610;28;20245;-68
2021/10/18 04:10:28;;;;;;;35.58;20.02;;;7.70;99.90;;;;;;2659219;28;20203;-68
2021/10/18 04:11:47;;;;;;;35.78;19.55;;;7.60;99.90;;;;;;2671890;28;20200;-68
2021/10/18 04:13:05;;;;;;;46.03;20.95;;;7.60;99.90;;;;;;2660218;28;20269;-68
2021/10/18 04:14:23;;;;;;;42.75;22.60;;;7.70;99.90;;;;;;2667258;28;20204;-67
2021/10/18 04:15:41;;;;;;;38.67;20.30;;;7.60;99.90;;;;;;2663369;28;21103;-68
2021/10/18 04:16:59;;;;;;;39.28;21.35;;;7.70;99.90;;;;;;2656324;28;20226;-68
2021/10/18 04:18:18;;;;;;;40.93;20.07;;;7.70;99.90;;;;;;2650453;28;20238;-68
2021/10/18 04:19:37;;;;;;;41.28;21.02;;;7.70;99.90;;;;;;2668594;28;20326;-68
2021/10/18 04:20:56;;;;;;;38.95;20.25;;;7.70;99.90;;;;;;2665175;28;20195;-68
2021/10/18 04:22:14;;;;;;;41.05;19.77;;;7.70;99.90;;;;;;2664669;28;20317;-68
2021/10/18 04:23:32;;;;;;;45.30;21.02;;;7.70;99.90;;;;;;2670319;28;20208;-68
2021/10/18 04:24:51;;;;;;;46.72;21.23;;;7.60;99.90;;;;;;2659530;28;20245;-67
2021/10/18 04:26:09;;;;;;;35.13;20.27;;;7.60;99.90;;;;;;2673150;28;20199;-68
2021/10/18 04:27:28;;;;;;;41.25;21.55;;;7.70;99.90;;;;;;2651762;28;20212;-67
2021/10/18 04:28:45;;;;;;;41.53;20.80;;;7.80;99.90;;;;;;2704962;28;20264;-68
2021/10/18 04:30:04;;;;;;;41.40;21.10;;;7.80;99.90;;;;;;2669350;28;20230;-68
2021/10/18 04:31:25;;;;;;;46.42;21.55;;;7.80;99.90;;;;;;2656232;28;20203;-68
2021/10/18 04:32:44;;;;;;;38.67;20.75;;;7.80;99.90;;;;;;2664229;28;20704;-68
2021/10/18 04:34:02;;;;;;;45.80;20.75;;;7.70;99.90;;;;;;2650779;28;20609;-68
2021/10/18 04:35:20;;;;;;;40.47;21.75;;;7.80;99.90;;;;;;2665715;28;20605;-68
2021/10/18 04:36:39;;;;;;;44.22;21.70;;;7.80;99.90;;;;;;2679540;28;20228;-68
2021/10/18 04:37:57;;;;;;;44.85;21.08;;;7.80;99.90;;;;;;2667180;28;20819;-68
2021/10/18 04:39:15;;;;;;;42.17;21.67;;;7.90;99.90;;;;;;2657162;28;20608;-68
2021/10/18 04:40:33;;;;;;;44.83;22.63;;;7.90;99.90;;;;;;2673555;28;20288;-68
2021/10/18 04:41:52;;;;;;;46.67;22.05;;;7.90;99.90;;;;;;2668217;28;20227;-68
2021/10/18 04:43:10;;;;;;;43.97;21.40;;;7.90;99.90;;;;;;2667589;28;20216;-68
2021/10/18 04:44:28;;;;;;;46.78;21.50;;;8.00;99.90;;;;;;2653328;28;20248;-68
2021/10/18 04:45:46;;;;;;;40.67;22.20;;;8.00;99.90;;;;;;2657857;28;20634;-68
2021/10/18 04:47:05;;;;;;;40.72;21.13;;;8.00;99.90;;;;;;2654458;28;20227;-68
2021/10/18 04:48:23;;;;;;;40.05;20.45;;;7.90;99.90;;;;;;2651917;28;20260;-68
2021/10/18 04:49:41;;;;;;;39.42;20.17;;;8.00;99.90;;;;;;2675160;28;20268;-68
2021/10/18 04:51:00;;;;;;;37.45;20.40;;;8.00;99.90;;;;;;2673216;28;20203;-68
2021/10/18 04:52:17;;;;;;;38.85;20.33;;;8.10;99.90;;;;;;2656138;28;20730;-68
2021/10/18 04:53:36;;;;;;;37.00;21.03;;;8.10;99.90;;;;;;2658074;28;20347;-68
2021/10/18 04:54:54;;;;;;;39.60;21.25;;;8.10;99.90;;;;;;2651370;28;20202;-67
2021/10/18 04:56:13;;;;;;;37.53;20.83;;;8.20;99.90;;;;;;2652147;28;20204;-68
2021/10/18 04:57:31;;;;;;;34.88;18.70;;;8.30;99.90;;;;;;2654247;28;20276;-68
2021/10/18 04:58:50;;;;;;;39.42;21.67;;;8.30;99.90;;;;;;2661214;28;20233;-68
2021/10/18 05:00:08;;;;;;;33.42;19.95;;;8.20;99.90;;;;;;2682254;28;20244;-68
2021/10/18 05:01:25;;;;;;;38.28;19.77;;;8.20;99.90;;;;;;2665152;28;20203;-68
2021/10/18 05:02:44;;;;;;;45.50;21.67;;;8.20;99.90;;;;;;2646859;28;20271;-69
2021/10/18 05:04:02;;;;;;;34.20;20.98;;;8.20;99.90;;;;;;2648210;28;20264;-68
2021/10/18 05:05:21;;;;;;;41.22;20.65;;;8.10;99.90;;;;;;2664178;28;20204;-68
2021/10/18 05:06:39;;;;;;;41.00;21.50;;;8.10;99.90;;;;;;2649171;28;20264;-68
2021/10/18 05:07:58;;;;;;;37.55;20.83;;;8.00;99.90;;;;;;2665263;28;20562;-68
2021/10/18 05:09:16;;;;;;;40.47;20.60;;;8.00;99.90;;;;;;2647508;28;20903;-68
2021/10/18 05:10:35;;;;;;;47.70;21.63;;;8.10;99.90;;;;;;2653638;28;20207;-68
2021/10/18 05:11:53;;;;;;;39.03;21.00;;;8.10;99.90;;;;;;2673882;28;20199;-68
2021/10/18 05:13:16;;;;;;;43.85;21.05;;;8.10;99.90;;;;;;2648207;28;20288;-68
2021/10/18 05:14:33;;;;;;;40.67;21.10;;;8.10;99.90;;;;;;2687042;28;20204;-68
2021/10/18 05:15:53;;;;;;;44.73;22.57;;;8.10;99.90;;;;;;2660020;28;20208;-68
2021/10/18 05:17:11;;;;;;;34.28;20.40;;;8.10;99.90;;;;;;2647529;28;20248;-68
2021/10/18 05:18:30;;;;;;;39.33;21.15;;;8.20;99.90;;;;;;2666380;28;20196;-68
2021/10/18 05:19:50;;;;;;;42.70;21.85;;;8.20;99.90;;;;;;2662038;28;20200;-68
2021/10/18 05:21:08;;;;;;;39.10;21.33;;;8.30;99.90;;;;;;2668912;28;20195;-68
2021/10/18 05:22:27;;;;;;;36.95;20.55;;;8.20;99.90;;;;;;2666104;28;20292;-68
2021/10/18 05:23:45;;;;;;;41.30;21.67;;;8.30;99.90;;;;;;2647600;28;20979;-68
2021/10/18 05:25:03;;;;;;;36.33;21.95;;;8.30;99.90;;;;;;2663676;28;20217;-67
2021/10/18 05:26:21;;;;;;;42.43;21.70;;;8.40;99.90;;;;;;2664273;28;20344;-68
2021/10/18 05:27:38;;;;;;;39.08;22.38;;;8.30;99.90;;;;;;2649325;28;20212;-68
2021/10/18 05:28:57;;;;;;;37.63;21.33;;;8.10;99.90;;;;;;2657585;28;20223;-68
2021/10/18 05:30:19;;;;;;;42.05;21.40;;;8.00;99.90;;;;;;2646719;28;20245;-68
2021/10/18 05:31:37;;;;;;;38.38;23.50;;;8.00;99.90;;;;;;2654396;28;20211;-68
2021/10/18 05:32:56;;;;;;;46.88;25.25;;;8.00;99.90;;;;;;2664309;28;20195;-68
2021/10/18 05:34:14;;;;;;;46.40;22.77;;;8.10;99.90;;;;;;2648760;28;20207;-68
2021/10/18 05:35:33;;;;;;;35.60;21.13;;;8.00;99.90;;;;;;2684073;28;20204;-67
2021/10/18 05:36:51;;;;;;;42.90;23.67;;;8.00;99.90;;;;;;2648067;28;21001;-68
2021/10/18 05:38:09;;;;;;;38.10;19.92;;;8.10;99.90;;;;;;2647316;28;20219;-68
2021/10/18 05:39:28;;;;;;;40.22;22.17;;;8.10;99.90;;;;;;2664895;28;20606;-68
2021/10/18 05:40:46;;;;;;;39.08;21.63;;;8.20;99.90;;;;;;2651466;28;20588;-69
2021/10/18 05:42:05;;;;;;;50.13;23.23;;;8.10;99.90;;;;;;2655878;28;20268;-68
2021/10/18 05:43:23;;;;;;;40.58;23.60;;;8.10;99.90;;;;;;2665663;28;20584;-68
2021/10/18 05:44:41;;;;;;;46.10;23.52;;;8.00;99.90;;;;;;2647736;28;20207;-68
2021/10/18 05:45:59;;;;;;;41.90;23.33;;;8.00;99.90;;;;;;2651614;28;20255;-68
2021/10/18 05:47:18;;;;;;;41.05;22.42;;;8.00;99.90;;;;;;2664440;28;20683;-68
2021/10/18 05:48:36;;;;;;;42.90;22.75;;;8.00;99.90;;;;;;2656160;28;20234;-68
2021/10/18 05:49:54;;;;;;;41.13;22.40;;;8.00;99.90;;;;;;2673975;28;20683;-68
2021/10/18 05:51:12;;;;;;;43.63;22.37;;;8.00;99.90;;;;;;2651722;28;20206;-68
2021/10/18 05:52:30;;;;;;;39.58;23.17;;;8.00;99.90;;;;;;2648645;28;20722;-68
2021/10/18 05:53:48;;;;;;;37.37;21.37;;;8.10;99.90;;;;;;2650522;28;20261;-68
2021/10/18 05:55:06;;;;;;;35.50;22.13;;;8.10;99.90;;;;;;2646011;28;20216;-68
2021/10/18 05:56:24;;;;;;;37.97;21.37;;;8.10;99.90;;;;;;2656547;28;20737;-68
2021/10/18 05:57:42;;;;;;;31.77;20.48;;;8.20;99.90;;;;;;2657391;28;20215;-68
2021/10/18 05:59:00;;;;;;;34.67;22.10;;;8.20;99.90;;;;;;2599646;28;20238;-68
2021/10/18 06:00:18;;;;;;;35.60;21.88;;;8.20;99.90;;;;;;2668971;28;20224;-68
2021/10/18 06:01:36;;;;;;;42.53;21.47;;;8.30;99.90;;;;;;2681162;28;20571;-68
2021/10/18 06:02:55;;;;;;;37.35;20.75;;;8.20;99.90;;;;;;2685707;28;20220;-68
2021/10/18 06:04:13;;;;;;;36.40;20.85;;;8.20;99.90;;;;;;2686669;28;20223;-68
2021/10/18 06:05:31;;;;;;;36.67;22.63;;;8.20;99.90;;;;;;2683003;28;20232;-68
2021/10/18 06:06:49;;;;;;;37.10;21.90;;;8.10;99.90;;;;;;2664107;28;20204;-68
2021/10/18 06:08:09;;;;;;;35.83;20.13;;;8.10;99.90;;;;;;2651072;28;20213;-67
2021/10/18 06:09:26;;;;;;;34.30;21.25;;;8.20;99.90;;;;;;2680064;28;20208;-68
2021/10/18 06:10:45;;;;;;;33.37;21.33;;;8.20;99.90;;;;;;2682272;28;20208;-68
2021/10/18 06:12:04;;;;;;;33.88;19.77;;;8.20;99.90;;;;;;2679991;28;20198;-68
2021/10/18 06:13:22;;;;;;;31.05;19.17;;;8.30;99.90;;;;;;2679094;28;20712;-68
2021/10/18 06:14:40;;;;;;;31.17;18.70;;;8.30;99.90;;;;;;2683052;28;20617;-68
2021/10/18 06:15:58;;;;;;;31.77;20.97;;;8.30;99.90;;;;;;2698550;28;20219;-68
2021/10/18 06:17:17;;;;;;;35.00;20.75;;;8.40;99.90;;;;;;2692232;28;20211;-68
2021/10/18 06:18:35;;;;;;;31.55;19.42;;;8.30;99.90;;;;;;2695073;28;20193;-68
2021/10/18 06:19:54;;;;;;;28.88;19.55;;;8.30;99.90;;;;;;2691216;28;20193;-67
2021/10/18 06:21:12;;;;;;;35.63;20.33;;;8.30;99.90;;;;;;2699199;28;20205;-67
2021/10/18 06:22:31;;;;;;;31.08;20.00;;;8.40;99.90;;;;;;2690006;28;20229;-67
2021/10/18 06:23:51;;;;;;;37.42;20.40;;;8.40;99.90;;;;;;2694633;28;20197;-67
2021/10/18 06:25:09;;;;;;;34.28;19.80;;;8.40;99.90;;;;;;2692553;28;20682;-68
2021/10/18 06:26:27;;;;;;;34.00;20.47;;;8.40;99.90;;;;;;2689390;28;20208;-67
2021/10/18 06:27:45;;;;;;;31.50;20.40;;;8.40;99.90;;;;;;2691505;28;20564;-67
2021/10/18 06:29:03;;;;;;;30.43;19.43;;;8.50;99.90;;;;;;2689855;28;20822;-67
2021/10/18 06:30:22;;;;;;;35.83;20.42;;;8.50;99.90;;;;;;2697596;28;20246;-68
2021/10/18 06:31:40;;;;;;;29.77;19.95;;;8.60;99.90;;;;;;2688973;28;20263;-67
2021/10/18 06:32:59;;;;;;;30.98;20.23;;;8.60;99.90;;;;;;2690750;28;20192;-68
2021/10/18 06:34:17;;;;;;;28.92;19.65;;;8.70;99.90;;;;;;2689275;28;20749;-67
2021/10/18 06:35:35;;;;;;;30.98;19.92;;;8.80;99.90;;;;;;2695978;28;20632;-67
2021/10/18 06:36:54;;;;;;;30.35;19.17;;;8.80;99.90;;;;;;2690803;28;20557;-67
2021/10/18 06:38:12;;;;;;;31.00;20.30;;;8.70;99.90;;;;;;2692044;28;20629;-67
2021/10/18 06:39:31;;;;;;;32.38;19.58;;;8.70;99.90;;;;;;2690526;28;20553;-67
2021/10/18 06:40:49;;;;;;;35.03;21.17;;;8.60;99.90;;;;;;2691923;28;20192;-67
2021/10/18 06:42:07;;;;;;;29.60;19.15;;;8.60;99.90;;;;;;2692661;28;20205;-67
2021/10/18 06:43:25;;;;;;;32.13;19.27;;;8.50;99.90;;;;;;2690767;28;20229;-67
2021/10/18 06:44:43;;;;;;;29.02;19.27;;;8.60;99.90;;;;;;2695720;28;20611;-67
2021/10/18 06:46:01;;;;;;;27.67;18.20;;;8.70;99.90;;;;;;2699573;28;20238;-67